sensor_id;sensor_type;location;lat;lon;timestamp;temperature;humidity
13052;DHT22;6592;47.484;9.726;2024-01-15T00:01:14;1.60;99.90
13052;DHT22;6592;47.484;9.726;2024-01-15T00:03:42;1.50;99.90
13052;DHT22;6592;47.484;9.726;2024-01-15T00:06:13;1.50;99.90
13052;DHT22;6592;47.484;9.726;2024-01-15T00:08:42;1.40;99.90
13052;DHT22;6592;47.484;9.726;2024-01-15T00:11:10;1.40;99.90
13052;DHT22;6592;47.484;9.726;2024-01-15T00:13:38;1.40;99.90
13052;DHT22;6592;47.484;9.726;2024-01-15T00:16:08;1.60;99.90
13052;DHT22;6592;47.484;9.726;2024-01-15T00:18:37;1.40;99.90
13052;DHT22;6592;47.484;9.726;2024-01-15T00:21:05;1.30;99.90
13052;DHT22;6592;47.484;9.726;2024-01-15T00:23:33;1.30;99.90
13052;DHT22;6592;47.484;9.726;2024-01-15T00:26:02;1.20;99.90
13052;DHT22;6592;47.484;9.726;2024-01-15T00:28:33;1.40;99.90
13052;DHT22;6592;47.484;9.726;2024-01-15T00:31:01;1.30;99.90
13052;DHT22;6592;47.484;9.726;2024-01-15T00:33:30;1.20;99.90
13052;DHT22;6592;47.484;9.726;2024-01-15T00:35:59;1.30;99.90
13052;DHT22;6592;47.484;9.726;2024-01-15T00:38:27;1.40;99.90
13052;DHT22;6592;47.484;9.726;2024-01-15T00:40:55;1.30;99.90
13052;DHT22;6592;47.484;9.726;2024-01-15T00:43:24;1.40;99.90
13052;DHT22;6592;47.484;9.726;2024-01-15T00:45:52;1.30;99.90
13052;DHT22;6592;47.484;9.726;2024-01-15T00:48:20;1.30;99.90
13052;DHT22;6592;47.484;9.726;2024-01-15T00:50:50;1.20;99.90
13052;DHT22;6592;47.484;9.726;2024-01-15T00:53:18;1.20;99.90
13052;DHT22;6592;47.484;9.726;2024-01-15T00:55:49;1.30;99.90
13052;DHT22;6592;47.484;9.726;2024-01-15T00:58:18;1.20;99.90
13052;DHT22;6592;47.484;9.726;2024-01-15T01:00:46;1.30;99.90
13052;DHT22;6592;47.484;9.726;2024-01-15T01:03:15;1.40;99.90
13052;DHT22;6592;47.484;9.726;2024-01-15T01:05:43;1.40;99.90
13052;DHT22;6592;47.484;9.726;2024-01-15T01:08:13;1.40;99.90
13052;DHT22;6592;47.484;9.726;2024-01-15T01:10:42;1.50;99.90
13052;DHT22;6592;47.484;9.726;2024-01-15T01:13:10;1.40;99.90
13052;DHT22;6592;47.484;9.726;2024-01-15T01:15:39;1.30;99.90
13052;DHT22;6592;47.484;9.726;2024-01-15T01:18:07;1.40;99.90
13052;DHT22;6592;47.484;9.726;2024-01-15T01:20:35;1.50;99.90
13052;DHT22;6592;47.484;9.726;2024-01-15T01:23:04;1.50;99.90
13052;DHT22;6592;47.484;9.726;2024-01-15T01:25:33;1.50;99.90
13052;DHT22;6592;47.484;9.726;2024-01-15T01:28:02;1.50;99.90
13052;DHT22;6592;47.484;9.726;2024-01-15T01:30:30;1.50;99.90
13052;DHT22;6592;47.484;9.726;2024-01-15T01:32:59;1.50;99.90
13052;DHT22;6592;47.484;9.726;2024-01-15T01:35:27;1.50;99.90
13052;DHT22;6592;47.484;9.726;2024-01-15T01:37:55;1.40;99.90
13052;DHT22;6592;47.484;9.726;2024-01-15T01:40:23;1.60;99.90
13052;DHT22;6592;47.484;9.726;2024-01-15T01:42:53;1.50;99.90
13052;DHT22;6592;47.484;9.726;2024-01-15T01:45:21;1.50;99.90
13052;DHT22;6592;47.484;9.726;2024-01-15T01:47:50;1.50;99.90
13052;DHT22;6592;47.484;9.726;2024-01-15T01:50:17;1.50;99.90
13052;DHT22;6592;47.484;9.726;2024-01-15T01:52:45;1.50;99.90
13052;DHT22;6592;47.484;9.726;2024-01-15T01:55:14;1.40;99.90
13052;DHT22;6592;47.484;9.726;2024-01-15T01:57:42;1.40;99.90
13052;DHT22;6592;47.484;9.726;2024-01-15T02:00:13;1.50;99.90
13052;DHT22;6592;47.484;9.726;2024-01-15T02:02:42;1.40;99.90
13052;DHT22;6592;47.484;9.726;2024-01-15T02:05:12;1.50;99.90
13052;DHT22;6592;47.484;9.726;2024-01-15T02:07:44;1.30;99.90
13052;DHT22;6592;47.484;9.726;2024-01-15T02:10:13;1.20;99.90
13052;DHT22;6592;47.484;9.726;2024-01-15T02:12:42;1.30;99.90
13052;DHT22;6592;47.484;9.726;2024-01-15T02:15:12;1.40;99.90
13052;DHT22;6592;47.484;9.726;2024-01-15T02:17:59;1.40;99.90
13052;DHT22;6592;47.484;9.726;2024-01-15T02:20:28;1.40;99.90
13052;DHT22;6592;47.484;9.726;2024-01-15T02:23:07;1.50;99.90
13052;DHT22;6592;47.484;9.726;2024-01-15T02:25:37;1.40;99.90
13052;DHT22;6592;47.484;9.726;2024-01-15T02:28:06;1.40;99.90
13052;DHT22;6592;47.484;9.726;2024-01-15T02:30:37;1.60;99.90
13052;DHT22;6592;47.484;9.726;2024-01-15T02:33:07;1.80;99.90
13052;DHT22;6592;47.484;9.726;2024-01-15T02:35:36;1.70;99.90
13052;DHT22;6592;47.484;9.726;2024-01-15T02:38:06;1.80;99.90
13052;DHT22;6592;47.484;9.726;2024-01-15T02:40:35;1.90;99.90
13052;DHT22;6592;47.484;9.726;2024-01-15T02:43:04;2.10;99.90
13052;DHT22;6592;47.484;9.726;2024-01-15T02:45:32;2.10;99.90
13052;DHT22;6592;47.484;9.726;2024-01-15T02:48:00;2.20;99.90
13052;DHT22;6592;47.484;9.726;2024-01-15T02:50:29;2.20;99.90
13052;DHT22;6592;47.484;9.726;2024-01-15T02:52:57;2.30;99.90
13052;DHT22;6592;47.484;9.726;2024-01-15T02:55:27;2.30;99.90
13052;DHT22;6592;47.484;9.726;2024-01-15T02:57:56;2.30;99.90
13052;DHT22;6592;47.484;9.726;2024-01-15T03:00:25;2.50;99.90
13052;DHT22;6592;47.484;9.726;2024-01-15T03:02:53;2.40;99.90
13052;DHT22;6592;47.484;9.726;2024-01-15T03:05:21;2.40;99.90
13052;DHT22;6592;47.484;9.726;2024-01-15T03:07:50;2.40;99.90
13052;DHT22;6592;47.484;9.726;2024-01-15T03:10:18;2.40;99.90
13052;DHT22;6592;47.484;9.726;2024-01-15T03:12:47;2.50;99.90
13052;DHT22;6592;47.484;9.726;2024-01-15T03:15:16;2.40;99.90
13052;DHT22;6592;47.484;9.726;2024-01-15T03:17:45;2.50;99.90
13052;DHT22;6592;47.484;9.726;2024-01-15T03:20:14;2.40;99.90
13052;DHT22;6592;47.484;9.726;2024-01-15T03:22:42;2.50;99.90
13052;DHT22;6592;47.484;9.726;2024-01-15T03:25:10;2.50;99.90
13052;DHT22;6592;47.484;9.726;2024-01-15T03:27:38;2.50;99.90
13052;DHT22;6592;47.484;9.726;2024-01-15T03:30:09;2.50;99.90
13052;DHT22;6592;47.484;9.726;2024-01-15T03:32:37;2.40;99.90
13052;DHT22;6592;47.484;9.726;2024-01-15T03:35:07;2.40;99.90
13052;DHT22;6592;47.484;9.726;2024-01-15T03:37:35;2.40;99.90
13052;DHT22;6592;47.484;9.726;2024-01-15T03:40:04;2.30;99.90
13052;DHT22;6592;47.484;9.726;2024-01-15T03:42:33;2.40;99.90
13052;DHT22;6592;47.484;9.726;2024-01-15T03:45:01;2.40;99.90
13052;DHT22;6592;47.484;9.726;2024-01-15T03:47:31;2.30;99.90
13052;DHT22;6592;47.484;9.726;2024-01-15T03:49:59;2.30;99.90
13052;DHT22;6592;47.484;9.726;2024-01-15T03:52:27;2.30;99.90
13052;DHT22;6592;47.484;9.726;2024-01-15T03:54:56;2.30;99.90
13052;DHT22;6592;47.484;9.726;2024-01-15T03:57:25;2.20;99.90
13052;DHT22;6592;47.484;9.726;2024-01-15T03:59:53;2.30;99.90
13052;DHT22;6592;47.484;9.726;2024-01-15T04:02:22;2.30;99.90
13052;DHT22;6592;47.484;9.726;2024-01-15T04:04:51;2.20;99.90
13052;DHT22;6592;47.484;9.726;2024-01-15T04:07:19;2.20;99.90
13052;DHT22;6592;47.484;9.726;2024-01-15T04:09:48;2.30;99.90
13052;DHT22;6592;47.484;9.726;2024-01-15T04:12:16;2.20;99.90
13052;DHT22;6592;47.484;9.726;2024-01-15T04:14:44;2.20;99.90
13052;DHT22;6592;47.484;9.726;2024-01-15T04:17:12;2.20;99.90
13052;DHT22;6592;47.484;9.726;2024-01-15T04:19:43;2.20;99.90
13052;DHT22;6592;47.484;9.726;2024-01-15T04:22:13;2.20;99.90
13052;DHT22;6592;47.484;9.726;2024-01-15T04:24:41;2.20;99.90
13052;DHT22;6592;47.484;9.726;2024-01-15T04:27:10;2.20;99.90
13052;DHT22;6592;47.484;9.726;2024-01-15T04:29:38;2.10;99.90
13052;DHT22;6592;47.484;9.726;2024-01-15T04:32:07;2.00;99.90
13052;DHT22;6592;47.484;9.726;2024-01-15T04:34:36;2.10;99.90
13052;DHT22;6592;47.484;9.726;2024-01-15T04:37:04;2.10;99.90
13052;DHT22;6592;47.484;9.726;2024-01-15T04:39:34;2.10;99.90
13052;DHT22;6592;47.484;9.726;2024-01-15T04:42:02;2.20;99.90
13052;DHT22;6592;47.484;9.726;2024-01-15T04:44:31;2.10;99.90
13052;DHT22;6592;47.484;9.726;2024-01-15T04:46:59;2.10;99.90
13052;DHT22;6592;47.484;9.726;2024-01-15T04:49:27;2.10;99.90
13052;DHT22;6592;47.484;9.726;2024-01-15T04:51:57;2.10;99.90
13052;DHT22;6592;47.484;9.726;2024-01-15T04:54:25;2.20;99.90
13052;DHT22;6592;47.484;9.726;2024-01-15T04:56:55;2.10;99.90
13052;DHT22;6592;47.484;9.726;2024-01-15T04:59:23;2.10;99.90
13052;DHT22;6592;47.484;9.726;2024-01-15T05:01:51;2.10;99.90
13052;DHT22;6592;47.484;9.726;2024-01-15T05:04:20;2.10;99.90
13052;DHT22;6592;47.484;9.726;2024-01-15T05:06:48;2.10;99.90
13052;DHT22;6592;47.484;9.726;2024-01-15T05:09:17;2.10;99.90
13052;DHT22;6592;47.484;9.726;2024-01-15T05:11:45;2.10;99.90
13052;DHT22;6592;47.484;9.726;2024-01-15T05:14:15;2.30;99.90
13052;DHT22;6592;47.484;9.726;2024-01-15T05:16:46;2.10;99.90
13052;DHT22;6592;47.484;9.726;2024-01-15T05:19:15;2.20;99.90
13052;DHT22;6592;47.484;9.726;2024-01-15T05:21:44;2.00;99.90
13052;DHT22;6592;47.484;9.726;2024-01-15T05:24:12;2.10;99.90
13052;DHT22;6592;47.484;9.726;2024-01-15T05:26:40;2.20;99.90
13052;DHT22;6592;47.484;9.726;2024-01-15T05:29:08;2.00;99.90
13052;DHT22;6592;47.484;9.726;2024-01-15T05:31:38;2.00;99.90
13052;DHT22;6592;47.484;9.726;2024-01-15T05:34:07;2.00;99.90
13052;DHT22;6592;47.484;9.726;2024-01-15T05:36:35;2.10;99.90
13052;DHT22;6592;47.484;9.726;2024-01-15T05:39:03;2.00;99.90
13052;DHT22;6592;47.484;9.726;2024-01-15T05:41:32;2.00;99.90
13052;DHT22;6592;47.484;9.726;2024-01-15T05:44:00;2.00;99.90
13052;DHT22;6592;47.484;9.726;2024-01-15T05:46:28;2.00;99.90
13052;DHT22;6592;47.484;9.726;2024-01-15T05:48:58;2.00;99.90
13052;DHT22;6592;47.484;9.726;2024-01-15T05:51:26;2.00;99.90
13052;DHT22;6592;47.484;9.726;2024-01-15T05:53:54;2.00;99.90
13052;DHT22;6592;47.484;9.726;2024-01-15T05:56:23;1.90;99.90
13052;DHT22;6592;47.484;9.726;2024-01-15T05:58:52;2.00;99.90
13052;DHT22;6592;47.484;9.726;2024-01-15T06:01:20;2.20;99.90
13052;DHT22;6592;47.484;9.726;2024-01-15T06:03:48;2.10;99.90
13052;DHT22;6592;47.484;9.726;2024-01-15T06:06:18;2.00;99.90
13052;DHT22;6592;47.484;9.726;2024-01-15T06:08:46;2.00;99.90
13052;DHT22;6592;47.484;9.726;2024-01-15T06:11:15;2.00;99.90
13052;DHT22;6592;47.484;9.726;2024-01-15T06:13:43;2.20;99.90
13052;DHT22;6592;47.484;9.726;2024-01-15T06:16:14;2.10;99.90
13052;DHT22;6592;47.484;9.726;2024-01-15T06:18:43;2.00;99.90
13052;DHT22;6592;47.484;9.726;2024-01-15T06:21:12;2.00;99.90
13052;DHT22;6592;47.484;9.726;2024-01-15T06:23:43;2.10;99.90
13052;DHT22;6592;47.484;9.726;2024-01-15T06:26:11;2.10;99.90
13052;DHT22;6592;47.484;9.726;2024-01-15T06:28:40;2.20;99.90
13052;DHT22;6592;47.484;9.726;2024-01-15T06:31:08;2.10;99.90
13052;DHT22;6592;47.484;9.726;2024-01-15T06:33:36;2.00;99.90
13052;DHT22;6592;47.484;9.726;2024-01-15T06:36:05;2.20;99.90
13052;DHT22;6592;47.484;9.726;2024-01-15T06:38:34;2.00;99.90
13052;DHT22;6592;47.484;9.726;2024-01-15T06:41:04;2.10;99.90
13052;DHT22;6592;47.484;9.726;2024-01-15T06:43:32;2.00;99.90
13052;DHT22;6592;47.484;9.726;2024-01-15T06:46:01;2.00;99.90
13052;DHT22;6592;47.484;9.726;2024-01-15T06:48:33;2.00;99.90
13052;DHT22;6592;47.484;9.726;2024-01-15T06:51:02;1.90;99.90
13052;DHT22;6592;47.484;9.726;2024-01-15T06:53:30;1.90;99.90
13052;DHT22;6592;47.484;9.726;2024-01-15T06:55:58;2.00;99.90
13052;DHT22;6592;47.484;9.726;2024-01-15T06:58:28;2.00;99.90
13052;DHT22;6592;47.484;9.726;2024-01-15T07:00:56;1.90;99.90
13052;DHT22;6592;47.484;9.726;2024-01-15T07:03:24;2.10;99.90
13052;DHT22;6592;47.484;9.726;2024-01-15T07:05:53;1.90;99.90
13052;DHT22;6592;47.484;9.726;2024-01-15T07:08:21;1.90;99.90
13052;DHT22;6592;47.484;9.726;2024-01-15T07:10:49;2.00;99.90
13052;DHT22;6592;47.484;9.726;2024-01-15T07:13:17;1.90;99.90
13052;DHT22;6592;47.484;9.726;2024-01-15T07:15:47;1.90;99.90
13052;DHT22;6592;47.484;9.726;2024-01-15T07:18:15;1.90;99.90
13052;DHT22;6592;47.484;9.726;2024-01-15T07:20:44;1.90;99.90
13052;DHT22;6592;47.484;9.726;2024-01-15T07:23:12;1.90;99.90
13052;DHT22;6592;47.484;9.726;2024-01-15T07:25:41;2.00;99.90
13052;DHT22;6592;47.484;9.726;2024-01-15T07:28:09;1.90;99.90
13052;DHT22;6592;47.484;9.726;2024-01-15T07:30:38;1.90;99.90
13052;DHT22;6592;47.484;9.726;2024-01-15T07:33:07;2.00;99.90
13052;DHT22;6592;47.484;9.726;2024-01-15T07:35:36;2.00;99.90
13052;DHT22;6592;47.484;9.726;2024-01-15T07:38:04;2.00;99.90
13052;DHT22;6592;47.484;9.726;2024-01-15T07:40:32;1.90;99.90
13052;DHT22;6592;47.484;9.726;2024-01-15T07:43:00;2.10;99.90
13052;DHT22;6592;47.484;9.726;2024-01-15T07:45:29;2.00;99.90
13052;DHT22;6592;47.484;9.726;2024-01-15T07:47:57;2.10;99.90
13052;DHT22;6592;47.484;9.726;2024-01-15T07:50:27;2.00;99.90
13052;DHT22;6592;47.484;9.726;2024-01-15T07:52:55;2.10;99.90
13052;DHT22;6592;47.484;9.726;2024-01-15T07:55:23;2.10;99.90
13052;DHT22;6592;47.484;9.726;2024-01-15T07:57:51;2.00;99.90
13052;DHT22;6592;47.484;9.726;2024-01-15T08:00:32;2.00;99.90
13052;DHT22;6592;47.484;9.726;2024-01-15T08:03:00;2.10;99.90
13052;DHT22;6592;47.484;9.726;2024-01-15T08:05:31;2.10;99.90
13052;DHT22;6592;47.484;9.726;2024-01-15T08:07:59;2.00;99.90
13052;DHT22;6592;47.484;9.726;2024-01-15T08:10:27;2.00;99.90
13052;DHT22;6592;47.484;9.726;2024-01-15T08:12:56;2.00;99.90
13052;DHT22;6592;47.484;9.726;2024-01-15T08:15:24;2.10;99.90
13052;DHT22;6592;47.484;9.726;2024-01-15T08:17:57;2.00;99.90
13052;DHT22;6592;47.484;9.726;2024-01-15T08:20:26;2.20;99.90
13052;DHT22;6592;47.484;9.726;2024-01-15T08:22:56;2.10;99.90
13052;DHT22;6592;47.484;9.726;2024-01-15T08:25:24;2.10;99.90
13052;DHT22;6592;47.484;9.726;2024-01-15T08:27:53;2.00;99.90
13052;DHT22;6592;47.484;9.726;2024-01-15T08:30:21;2.10;99.90
13052;DHT22;6592;47.484;9.726;2024-01-15T08:32:51;2.20;99.90
13052;DHT22;6592;47.484;9.726;2024-01-15T08:35:20;2.00;99.90
13052;DHT22;6592;47.484;9.726;2024-01-15T08:37:50;2.10;99.90
13052;DHT22;6592;47.484;9.726;2024-01-15T08:40:19;2.20;99.90
13052;DHT22;6592;47.484;9.726;2024-01-15T08:42:47;2.10;99.90
13052;DHT22;6592;47.484;9.726;2024-01-15T08:45:16;2.30;99.90
13052;DHT22;6592;47.484;9.726;2024-01-15T08:47:43;2.20;99.90
13052;DHT22;6592;47.484;9.726;2024-01-15T08:50:11;2.10;99.90
13052;DHT22;6592;47.484;9.726;2024-01-15T08:52:40;2.10;99.90
13052;DHT22;6592;47.484;9.726;2024-01-15T08:55:08;2.10;99.90
13052;DHT22;6592;47.484;9.726;2024-01-15T08:57:37;2.10;99.90
13052;DHT22;6592;47.484;9.726;2024-01-15T09:00:07;2.10;99.90
13052;DHT22;6592;47.484;9.726;2024-01-15T09:02:36;2.10;99.90
13052;DHT22;6592;47.484;9.726;2024-01-15T09:05:04;2.10;99.90
13052;DHT22;6592;47.484;9.726;2024-01-15T09:07:33;2.00;99.90
13052;DHT22;6592;47.484;9.726;2024-01-15T09:10:01;2.20;99.90
13052;DHT22;6592;47.484;9.726;2024-01-15T09:12:29;2.00;99.90
13052;DHT22;6592;47.484;9.726;2024-01-15T09:14:59;2.00;99.90
13052;DHT22;6592;47.484;9.726;2024-01-15T09:17:28;2.00;99.90
13052;DHT22;6592;47.484;9.726;2024-01-15T09:19:56;2.10;99.90
13052;DHT22;6592;47.484;9.726;2024-01-15T09:22:25;2.00;99.90
13052;DHT22;6592;47.484;9.726;2024-01-15T09:24:53;2.00;99.90
13052;DHT22;6592;47.484;9.726;2024-01-15T09:27:21;1.90;99.90
13052;DHT22;6592;47.484;9.726;2024-01-15T09:29:49;2.10;99.90
13052;DHT22;6592;47.484;9.726;2024-01-15T09:32:19;2.00;99.90
13052;DHT22;6592;47.484;9.726;2024-01-15T09:34:47;2.00;99.90
13052;DHT22;6592;47.484;9.726;2024-01-15T09:37:16;2.00;99.90
13052;DHT22;6592;47.484;9.726;2024-01-15T09:40:03;2.00;99.90
13052;DHT22;6592;47.484;9.726;2024-01-15T09:42:35;2.00;99.90
13052;DHT22;6592;47.484;9.726;2024-01-15T09:45:04;2.20;99.90
13052;DHT22;6592;47.484;9.726;2024-01-15T09:47:33;2.00;99.90
13052;DHT22;6592;47.484;9.726;2024-01-15T09:50:02;2.00;99.90
13052;DHT22;6592;47.484;9.726;2024-01-15T09:52:30;2.00;99.90
13052;DHT22;6592;47.484;9.726;2024-01-15T09:55:00;2.10;99.90
13052;DHT22;6592;47.484;9.726;2024-01-15T09:57:30;2.10;99.90
13052;DHT22;6592;47.484;9.726;2024-01-15T10:00:01;2.00;99.90
13052;DHT22;6592;47.484;9.726;2024-01-15T10:02:32;2.20;99.90
13052;DHT22;6592;47.484;9.726;2024-01-15T10:05:01;2.00;99.90
13052;DHT22;6592;47.484;9.726;2024-01-15T10:07:30;2.10;99.90
13052;DHT22;6592;47.484;9.726;2024-01-15T10:10:03;2.10;99.90
13052;DHT22;6592;47.484;9.726;2024-01-15T10:12:31;2.10;99.90
13052;DHT22;6592;47.484;9.726;2024-01-15T10:15:00;2.20;99.90
13052;DHT22;6592;47.484;9.726;2024-01-15T10:17:29;2.00;99.90
13052;DHT22;6592;47.484;9.726;2024-01-15T10:19:59;2.10;99.90
13052;DHT22;6592;47.484;9.726;2024-01-15T10:22:28;2.10;99.90
13052;DHT22;6592;47.484;9.726;2024-01-15T10:24:57;2.10;99.90
13052;DHT22;6592;47.484;9.726;2024-01-15T10:27:26;2.10;99.90
13052;DHT22;6592;47.484;9.726;2024-01-15T10:29:54;2.20;99.90
13052;DHT22;6592;47.484;9.726;2024-01-15T10:32:27;2.30;99.90
13052;DHT22;6592;47.484;9.726;2024-01-15T10:34:55;2.20;99.90
13052;DHT22;6592;47.484;9.726;2024-01-15T10:37:25;2.30;99.90
13052;DHT22;6592;47.484;9.726;2024-01-15T10:39:55;2.10;99.90
13052;DHT22;6592;47.484;9.726;2024-01-15T10:42:24;2.20;99.90
13052;DHT22;6592;47.484;9.726;2024-01-15T10:44:53;2.30;99.90
13052;DHT22;6592;47.484;9.726;2024-01-15T10:47:21;2.20;99.90
13052;DHT22;6592;47.484;9.726;2024-01-15T10:49:51;2.30;99.90
13052;DHT22;6592;47.484;9.726;2024-01-15T10:52:21;2.30;99.90
13052;DHT22;6592;47.484;9.726;2024-01-15T10:54:51;2.30;99.90
13052;DHT22;6592;47.484;9.726;2024-01-15T10:57:21;2.30;99.90
13052;DHT22;6592;47.484;9.726;2024-01-15T10:59:50;2.30;99.90
13052;DHT22;6592;47.484;9.726;2024-01-15T11:02:18;2.30;99.90
13052;DHT22;6592;47.484;9.726;2024-01-15T11:04:46;2.30;99.90
13052;DHT22;6592;47.484;9.726;2024-01-15T11:07:15;2.30;99.90
13052;DHT22;6592;47.484;9.726;2024-01-15T11:09:44;2.30;99.90
13052;DHT22;6592;47.484;9.726;2024-01-15T11:12:16;2.30;99.90
13052;DHT22;6592;47.484;9.726;2024-01-15T11:14:47;2.50;99.90
13052;DHT22;6592;47.484;9.726;2024-01-15T11:17:16;2.40;99.90
13052;DHT22;6592;47.484;9.726;2024-01-15T11:19:45;2.40;99.90
13052;DHT22;6592;47.484;9.726;2024-01-15T11:22:47;2.40;99.90
13052;DHT22;6592;47.484;9.726;2024-01-15T11:25:19;2.50;99.90
13052;DHT22;6592;47.484;9.726;2024-01-15T11:27:49;2.60;99.90
13052;DHT22;6592;47.484;9.726;2024-01-15T11:30:20;2.60;99.90
13052;DHT22;6592;47.484;9.726;2024-01-15T11:32:52;2.60;99.90
13052;DHT22;6592;47.484;9.726;2024-01-15T11:35:21;2.60;99.90
13052;DHT22;6592;47.484;9.726;2024-01-15T11:37:57;2.60;99.90
13052;DHT22;6592;47.484;9.726;2024-01-15T11:40:39;2.70;99.90
13052;DHT22;6592;47.484;9.726;2024-01-15T11:43:11;2.70;99.90
13052;DHT22;6592;47.484;9.726;2024-01-15T11:45:42;2.70;99.90
13052;DHT22;6592;47.484;9.726;2024-01-15T11:48:14;2.70;99.90
13052;DHT22;6592;47.484;9.726;2024-01-15T11:50:45;2.80;99.90
13052;DHT22;6592;47.484;9.726;2024-01-15T11:53:27;2.80;99.90
13052;DHT22;6592;47.484;9.726;2024-01-15T11:55:58;2.80;99.90
13052;DHT22;6592;47.484;9.726;2024-01-15T11:58:28;2.80;99.90
13052;DHT22;6592;47.484;9.726;2024-01-15T12:00:57;2.80;99.90
13052;DHT22;6592;47.484;9.726;2024-01-15T12:03:25;2.80;99.90
13052;DHT22;6592;47.484;9.726;2024-01-15T12:05:53;2.70;99.90
13052;DHT22;6592;47.484;9.726;2024-01-15T12:08:22;2.70;99.90
13052;DHT22;6592;47.484;9.726;2024-01-15T12:10:51;2.70;99.90
13052;DHT22;6592;47.484;9.726;2024-01-15T12:13:20;2.70;99.90
13052;DHT22;6592;47.484;9.726;2024-01-15T12:15:50;2.60;99.90
13052;DHT22;6592;47.484;9.726;2024-01-15T12:18:18;2.60;99.90
13052;DHT22;6592;47.484;9.726;2024-01-15T12:20:47;2.60;99.90
13052;DHT22;6592;47.484;9.726;2024-01-15T12:23:17;2.60;99.90
13052;DHT22;6592;47.484;9.726;2024-01-15T12:25:45;2.60;99.90
13052;DHT22;6592;47.484;9.726;2024-01-15T12:28:15;2.70;99.90
13052;DHT22;6592;47.484;9.726;2024-01-15T12:30:47;2.60;99.90
13052;DHT22;6592;47.484;9.726;2024-01-15T12:33:19;2.60;99.90
13052;DHT22;6592;47.484;9.726;2024-01-15T12:35:48;2.60;99.90
13052;DHT22;6592;47.484;9.726;2024-01-15T12:38:18;2.70;99.90
13052;DHT22;6592;47.484;9.726;2024-01-15T12:40:48;2.80;99.90
13052;DHT22;6592;47.484;9.726;2024-01-15T12:43:17;2.70;99.90
13052;DHT22;6592;47.484;9.726;2024-01-15T12:45:46;2.70;99.90
13052;DHT22;6592;47.484;9.726;2024-01-15T12:48:14;2.70;99.90
13052;DHT22;6592;47.484;9.726;2024-01-15T12:50:47;2.70;99.90
13052;DHT22;6592;47.484;9.726;2024-01-15T12:53:15;2.70;99.90
13052;DHT22;6592;47.484;9.726;2024-01-15T12:55:44;2.80;99.90
13052;DHT22;6592;47.484;9.726;2024-01-15T12:58:12;2.90;99.90
13052;DHT22;6592;47.484;9.726;2024-01-15T13:00:42;2.90;99.90
13052;DHT22;6592;47.484;9.726;2024-01-15T13:03:11;2.90;99.90
13052;DHT22;6592;47.484;9.726;2024-01-15T13:05:41;2.70;99.90
13052;DHT22;6592;47.484;9.726;2024-01-15T13:08:10;2.80;99.90
13052;DHT22;6592;47.484;9.726;2024-01-15T13:10:39;2.90;99.90
13052;DHT22;6592;47.484;9.726;2024-01-15T13:13:09;2.70;99.90
13052;DHT22;6592;47.484;9.726;2024-01-15T13:15:37;2.60;99.90
13052;DHT22;6592;47.484;9.726;2024-01-15T13:18:06;2.60;99.90
13052;DHT22;6592;47.484;9.726;2024-01-15T13:20:36;2.60;99.90
13052;DHT22;6592;47.484;9.726;2024-01-15T13:23:04;2.50;99.90
13052;DHT22;6592;47.484;9.726;2024-01-15T13:25:34;2.60;99.90
13052;DHT22;6592;47.484;9.726;2024-01-15T13:28:06;2.50;99.90
13052;DHT22;6592;47.484;9.726;2024-01-15T13:30:35;2.50;99.90
13052;DHT22;6592;47.484;9.726;2024-01-15T13:33:03;2.50;99.90
13052;DHT22;6592;47.484;9.726;2024-01-15T13:35:32;2.50;99.90
13052;DHT22;6592;47.484;9.726;2024-01-15T13:38:00;2.50;99.90
13052;DHT22;6592;47.484;9.726;2024-01-15T13:40:28;2.40;99.90
13052;DHT22;6592;47.484;9.726;2024-01-15T13:42:58;2.50;99.90
13052;DHT22;6592;47.484;9.726;2024-01-15T13:45:26;2.50;99.90
13052;DHT22;6592;47.484;9.726;2024-01-15T13:47:55;2.50;99.90
13052;DHT22;6592;47.484;9.726;2024-01-15T13:50:23;2.50;99.90
13052;DHT22;6592;47.484;9.726;2024-01-15T13:52:52;2.50;99.90
13052;DHT22;6592;47.484;9.726;2024-01-15T13:55:20;2.50;99.90
13052;DHT22;6592;47.484;9.726;2024-01-15T13:57:48;2.50;99.90
13052;DHT22;6592;47.484;9.726;2024-01-15T14:00:18;2.40;99.90
13052;DHT22;6592;47.484;9.726;2024-01-15T14:02:47;2.50;99.90
13052;DHT22;6592;47.484;9.726;2024-01-15T14:05:15;2.50;99.90
13052;DHT22;6592;47.484;9.726;2024-01-15T14:07:43;2.50;99.90
13052;DHT22;6592;47.484;9.726;2024-01-15T14:10:12;2.50;99.90
13052;DHT22;6592;47.484;9.726;2024-01-15T14:12:40;2.50;99.90
13052;DHT22;6592;47.484;9.726;2024-01-15T14:15:09;2.50;99.90
13052;DHT22;6592;47.484;9.726;2024-01-15T14:17:39;2.50;99.90
13052;DHT22;6592;47.484;9.726;2024-01-15T14:20:08;2.50;99.90
13052;DHT22;6592;47.484;9.726;2024-01-15T14:22:37;2.50;99.90
13052;DHT22;6592;47.484;9.726;2024-01-15T14:25:05;2.50;99.90
13052;DHT22;6592;47.484;9.726;2024-01-15T14:27:34;2.60;99.90
13052;DHT22;6592;47.484;9.726;2024-01-15T14:30:04;2.60;99.90
13052;DHT22;6592;47.484;9.726;2024-01-15T14:32:35;2.70;99.90
13052;DHT22;6592;47.484;9.726;2024-01-15T14:35:06;2.70;99.90
13052;DHT22;6592;47.484;9.726;2024-01-15T14:37:35;2.70;99.90
13052;DHT22;6592;47.484;9.726;2024-01-15T14:40:04;2.80;99.90
13052;DHT22;6592;47.484;9.726;2024-01-15T14:42:34;2.80;99.90
13052;DHT22;6592;47.484;9.726;2024-01-15T14:45:04;2.80;99.90
13052;DHT22;6592;47.484;9.726;2024-01-15T14:47:39;2.90;99.90
13052;DHT22;6592;47.484;9.726;2024-01-15T14:50:09;2.90;99.90
13052;DHT22;6592;47.484;9.726;2024-01-15T14:52:39;2.90;99.90
13052;DHT22;6592;47.484;9.726;2024-01-15T14:55:09;2.80;99.90
13052;DHT22;6592;47.484;9.726;2024-01-15T14:57:37;2.80;99.90
13052;DHT22;6592;47.484;9.726;2024-01-15T15:00:06;2.90;99.90
13052;DHT22;6592;47.484;9.726;2024-01-15T15:02:36;2.90;99.90
13052;DHT22;6592;47.484;9.726;2024-01-15T15:05:06;2.90;99.90
13052;DHT22;6592;47.484;9.726;2024-01-15T15:07:36;2.90;99.90
13052;DHT22;6592;47.484;9.726;2024-01-15T15:10:05;2.90;99.90
13052;DHT22;6592;47.484;9.726;2024-01-15T15:12:36;2.90;99.90
13052;DHT22;6592;47.484;9.726;2024-01-15T15:15:04;3.00;99.90
13052;DHT22;6592;47.484;9.726;2024-01-15T15:17:38;3.00;99.90
13052;DHT22;6592;47.484;9.726;2024-01-15T15:20:07;3.00;99.90
13052;DHT22;6592;47.484;9.726;2024-01-15T15:22:37;2.90;99.90
13052;DHT22;6592;47.484;9.726;2024-01-15T15:25:06;3.00;99.90
13052;DHT22;6592;47.484;9.726;2024-01-15T15:27:36;3.00;99.90
13052;DHT22;6592;47.484;9.726;2024-01-15T15:30:06;3.00;99.90
13052;DHT22;6592;47.484;9.726;2024-01-15T15:32:34;2.90;99.90
13052;DHT22;6592;47.484;9.726;2024-01-15T15:35:03;2.90;99.90
13052;DHT22;6592;47.484;9.726;2024-01-15T15:37:31;2.90;99.90
13052;DHT22;6592;47.484;9.726;2024-01-15T15:40:01;2.90;99.90
13052;DHT22;6592;47.484;9.726;2024-01-15T15:42:30;2.90;99.90
13052;DHT22;6592;47.484;9.726;2024-01-15T15:44:58;2.90;99.90
13052;DHT22;6592;47.484;9.726;2024-01-15T15:47:28;2.90;99.90
13052;DHT22;6592;47.484;9.726;2024-01-15T15:49:57;2.90;99.90
13052;DHT22;6592;47.484;9.726;2024-01-15T15:52:25;2.90;99.90
13052;DHT22;6592;47.484;9.726;2024-01-15T15:54:54;2.90;99.90
13052;DHT22;6592;47.484;9.726;2024-01-15T15:57:23;2.90;99.90
13052;DHT22;6592;47.484;9.726;2024-01-15T15:59:53;3.00;99.90
13052;DHT22;6592;47.484;9.726;2024-01-15T16:02:21;3.00;99.90
13052;DHT22;6592;47.484;9.726;2024-01-15T16:04:50;3.00;99.90
13052;DHT22;6592;47.484;9.726;2024-01-15T16:07:18;3.00;99.90
13052;DHT22;6592;47.484;9.726;2024-01-15T16:09:46;3.00;99.90
13052;DHT22;6592;47.484;9.726;2024-01-15T16:12:15;3.00;99.90
13052;DHT22;6592;47.484;9.726;2024-01-15T16:14:44;3.10;99.90